Saint Francis, Arkansas
Current Conditions -  °F | °C
As of 5:53 AM on Saturday 20 Dec 2014 (Local Time) from KPOF Reporting Station
Overcast Overcast  
Wind Chill: 36°   Ceiling: 3300
Heat Index: 36°   Visibility: 9mi
Dew Point: 31°   Wind: 3mph
Humidity: 82%   Direction: 70°ENE
Pressure: 30.26"   Gusts: NA
Location:  36.45°N, 90.15°W
Report Text: KPOF 201153Z AUTO 07003KT 9SM OVC033 02/M01 A3026 RMK AO2 SLP251 T00221006 10028 20022 51005
Loading
Personal Weather Stations






























Interactive Weather Map New forecast layout! Learn more

10-Day Weather Forecast

Advertisements
Track Severe Weather on mobile